createdAt,value
2019-06-10T00:01:55.466Z,98.30
2019-06-10T00:03:57.813Z,98.30
2019-06-10T00:06:01.902Z,98.30
2019-06-10T00:08:05.132Z,98.30
2019-06-10T00:10:07.722Z,98.30
2019-06-10T00:12:12.316Z,98.30
2019-06-10T00:14:13.109Z,98.30
2019-06-10T00:16:14.909Z,98.30
2019-06-10T00:18:34.408Z,98.30
2019-06-10T00:20:21.595Z,98.30
2019-06-10T00:22:23.438Z,98.30
2019-06-10T00:24:25.151Z,98.30
2019-06-10T00:26:26.973Z,98.30
2019-06-10T00:28:30.980Z,98.30
2019-06-10T00:30:32.975Z,98.30
2019-06-10T00:32:34.713Z,98.30
2019-06-10T00:34:36.654Z,98.30
2019-06-10T00:36:38.370Z,98.30
2019-06-10T00:38:41.199Z,98.30
2019-06-10T00:40:43.258Z,98.30
2019-06-10T00:42:44.981Z,98.30
2019-06-10T00:44:46.789Z,98.30
2019-06-10T00:46:48.549Z,98.30
2019-06-10T00:48:50.890Z,98.30
2019-06-10T00:50:52.798Z,98.30
2019-06-10T00:52:54.525Z,98.30
2019-06-10T00:54:56.398Z,98.30
2019-06-10T00:56:58.112Z,98.30
2019-06-10T00:59:01.067Z,98.30
2019-06-10T01:01:04.242Z,98.30
2019-06-10T01:03:06.214Z,98.30
2019-06-10T01:05:09.851Z,98.30
2019-06-10T01:07:14.760Z,98.30
2019-06-10T01:09:15.714Z,98.30
2019-06-10T01:11:23.682Z,98.30
2019-06-10T01:13:21.069Z,98.30
2019-06-10T01:15:22.777Z,98.30
2019-06-10T01:17:24.498Z,98.30
2019-06-10T01:19:26.269Z,98.30
2019-06-10T01:21:28.029Z,98.30
2019-06-10T01:23:31.060Z,98.30
2019-06-10T01:25:33.190Z,98.30
2019-06-10T01:27:34.941Z,98.30
2019-06-10T01:29:36.714Z,98.30
2019-06-10T01:31:38.474Z,98.30
2019-06-10T01:33:41.101Z,98.30
2019-06-10T01:35:43.132Z,98.30
2019-06-10T01:37:44.962Z,98.30
2019-06-10T01:39:46.754Z,98.30
2019-06-10T01:41:48.497Z,98.30
2019-06-10T01:43:51.245Z,98.30
2019-06-10T01:45:53.280Z,98.30
2019-06-10T01:47:55.085Z,98.30
2019-06-10T01:49:56.817Z,98.30
2019-06-10T01:51:58.859Z,98.30
2019-06-10T01:54:01.324Z,98.30
2019-06-10T01:56:03.497Z,98.30
2019-06-10T01:58:05.233Z,98.30
2019-06-10T02:00:11.999Z,98.30
2019-06-10T02:02:17.760Z,98.30
2019-06-10T02:04:22.096Z,98.30
2019-06-10T02:06:25.563Z,98.30
2019-06-10T02:08:27.445Z,98.30
2019-06-10T02:10:31.087Z,98.30
2019-06-10T02:12:33.062Z,98.30
2019-06-10T02:14:34.787Z,98.30
2019-06-10T02:16:36.737Z,98.30
2019-06-10T02:18:40.965Z,98.30
2019-06-10T02:20:42.137Z,98.30
2019-06-10T02:22:43.961Z,98.30
2019-06-10T02:24:45.819Z,98.30
2019-06-10T02:26:47.541Z,98.30
2019-06-10T02:28:51.257Z,98.30
2019-06-10T02:30:55.665Z,98.30
2019-06-10T02:32:56.763Z,98.30
2019-06-10T02:35:08.956Z,98.30
2019-06-10T02:37:04.783Z,98.30
2019-06-10T02:39:07.555Z,98.30
2019-06-10T02:41:09.380Z,98.30
2019-06-10T02:43:17.468Z,98.30
2019-06-10T02:45:19.702Z,98.30
2019-06-10T02:47:23.755Z,98.30
2019-06-10T02:49:46.529Z,98.30
2019-06-10T02:51:31.065Z,98.30
2019-06-10T02:53:35.701Z,98.30
2019-06-10T02:55:35.659Z,98.30
2019-06-10T02:57:40.243Z,98.30
2019-06-10T02:59:43.550Z,98.30
2019-06-10T03:01:44.917Z,98.30
2019-06-10T03:03:49.506Z,98.30
2019-06-10T03:05:53.536Z,98.30
2019-06-10T03:07:54.266Z,98.30
2019-06-10T03:09:56.126Z,98.30
2019-06-10T03:11:57.816Z,98.30
2019-06-10T03:13:59.541Z,98.30
2019-06-10T03:16:25.373Z,98.30
2019-06-10T03:18:26.221Z,98.30
2019-06-10T03:20:28.419Z,98.30
2019-06-10T03:22:32.620Z,98.30
2019-06-10T03:24:34.114Z,98.30
2019-06-10T03:26:35.973Z,98.30
2019-06-10T03:28:37.727Z,98.30
2019-06-10T03:30:49.619Z,98.30
2019-06-10T03:32:47.053Z,98.30
2019-06-10T03:34:47.681Z,98.30
2019-06-10T03:36:49.793Z,98.30
2019-06-10T03:38:53.698Z,98.30
2019-06-10T03:40:55.200Z,98.30
2019-06-10T03:42:56.918Z,98.30
2019-06-10T03:44:58.630Z,98.30
2019-06-10T03:47:02.705Z,98.30
2019-06-10T03:49:04.150Z,98.30
2019-06-10T03:51:05.898Z,98.30
2019-06-10T03:53:07.652Z,98.30
2019-06-10T03:55:12.064Z,98.30
2019-06-10T03:57:13.292Z,98.30
2019-06-10T03:59:15.030Z,98.30
2019-06-10T04:01:17.384Z,98.30
2019-06-10T04:03:19.400Z,98.30
2019-06-10T04:05:23.862Z,98.30
2019-06-10T04:07:28.270Z,98.30
2019-06-10T04:09:28.861Z,98.30
2019-06-10T04:11:34.828Z,98.30
2019-06-10T04:13:34.488Z,98.30
2019-06-10T04:15:36.245Z,98.30
2019-06-10T04:17:37.967Z,98.30
2019-06-10T04:19:41.966Z,98.30
2019-06-10T04:21:43.491Z,98.30
2019-06-10T04:23:45.222Z,98.30
2019-06-10T04:25:46.931Z,98.30
2019-06-10T04:27:48.763Z,98.30
2019-06-10T04:29:52.428Z,98.30
2019-06-10T04:31:54.180Z,98.30
2019-06-10T04:33:55.913Z,98.30
2019-06-10T04:35:57.672Z,98.30
2019-06-10T04:37:59.514Z,98.30
2019-06-10T04:40:02.882Z,98.30
2019-06-10T04:42:04.873Z,98.30
2019-06-10T04:44:06.709Z,98.30
2019-06-10T04:46:08.538Z,98.30
2019-06-10T04:48:12.305Z,98.30
2019-06-10T04:50:24.598Z,98.30
2019-06-10T04:52:18.651Z,98.30
2019-06-10T04:54:23.044Z,98.30
2019-06-10T04:56:26.171Z,98.30
2019-06-10T04:58:29.142Z,98.30
2019-06-10T05:00:33.106Z,98.30
2019-06-10T05:02:35.008Z,98.30
2019-06-10T05:04:36.754Z,98.30
2019-06-10T05:06:38.486Z,98.30
2019-06-10T05:08:42.345Z,98.30
2019-06-10T05:10:43.815Z,98.30
2019-06-10T05:12:45.569Z,98.30
2019-06-10T05:14:47.368Z,98.30
2019-06-10T05:16:49.118Z,98.30
2019-06-10T05:18:54.069Z,98.30
2019-06-10T05:20:58.531Z,98.30
2019-06-10T05:22:58.257Z,98.30
2019-06-10T05:25:02.269Z,98.30
2019-06-10T05:27:03.688Z,98.30
2019-06-10T05:29:05.630Z,98.30
2019-06-10T05:31:07.337Z,98.30
2019-06-10T05:33:09.213Z,98.30
2019-06-10T05:35:12.401Z,98.30
2019-06-10T05:37:14.392Z,98.30
2019-06-10T05:39:16.258Z,98.30
2019-06-10T05:41:18.014Z,98.30
2019-06-10T05:43:21.967Z,98.30
2019-06-10T05:45:25.883Z,98.30
2019-06-10T05:47:29.232Z,98.30
2019-06-10T05:49:33.780Z,98.30
2019-06-10T05:51:35.356Z,98.30
2019-06-10T05:53:37.454Z,98.30
2019-06-10T05:55:39.316Z,98.30
2019-06-10T05:57:42.840Z,98.30
2019-06-10T05:59:44.793Z,98.30
2019-06-10T06:01:46.507Z,98.30
2019-06-10T06:03:48.245Z,98.30
2019-06-10T06:05:52.356Z,98.30
2019-06-10T06:08:04.395Z,98.30
2019-06-10T06:09:57.378Z,98.30
2019-06-10T06:11:59.125Z,98.30
2019-06-10T06:14:02.749Z,98.30
2019-06-10T06:16:04.769Z,98.30
2019-06-10T06:18:10.441Z,98.30
2019-06-10T06:20:13.118Z,98.30
2019-06-10T06:22:15.226Z,98.30
2019-06-10T06:24:17.014Z,98.30
2019-06-10T06:26:19.194Z,98.30
2019-06-10T06:28:22.941Z,98.30
2019-06-10T06:30:26.083Z,98.30
2019-06-10T06:32:28.383Z,98.30
2019-06-10T06:34:32.683Z,98.30
2019-06-10T06:36:36.379Z,98.30
2019-06-10T06:38:38.460Z,98.30
2019-06-10T06:40:40.368Z,98.30
2019-06-10T06:42:43.437Z,98.30
2019-06-10T06:44:45.445Z,98.30
2019-06-10T06:46:47.321Z,98.30
2019-06-10T06:48:49.042Z,98.30
2019-06-10T06:51:02.095Z,98.30
2019-06-10T06:53:19.765Z,98.30
2019-06-10T06:54:58.225Z,98.30
2019-06-10T06:57:03.257Z,98.30
2019-06-10T06:59:03.645Z,98.30
2019-06-10T07:01:10.652Z,98.30
2019-06-10T07:03:09.121Z,98.30
2019-06-10T07:05:12.543Z,98.30
2019-06-10T07:07:15.478Z,98.30
2019-06-10T07:09:18.186Z,98.30
2019-06-10T07:11:22.379Z,98.30
2019-06-10T07:13:25.148Z,98.30
2019-06-10T07:15:39.516Z,98.30
2019-06-10T07:17:45.652Z,98.30
2019-06-10T07:19:45.934Z,98.30
2019-06-10T07:22:07.472Z,98.30
2019-06-10T07:23:52.848Z,98.30
2019-06-10T07:25:54.758Z,98.30
2019-06-10T07:27:56.509Z,98.30
2019-06-10T07:29:58.243Z,98.30
2019-06-10T07:31:59.974Z,98.30
2019-06-10T07:34:02.647Z,98.30
2019-06-10T07:36:04.645Z,98.30
2019-06-10T07:38:06.364Z,98.30
2019-06-10T07:40:08.292Z,98.30
2019-06-10T07:42:10.042Z,98.30
2019-06-10T07:44:12.486Z,98.30
2019-06-10T07:46:14.500Z,98.30
2019-06-10T07:48:35.017Z,98.30
2019-06-10T07:50:37.788Z,98.30
2019-06-10T07:52:42.995Z,98.30
2019-06-10T07:54:45.247Z,98.30
2019-06-10T07:56:50.554Z,98.30
2019-06-10T07:59:12.969Z,98.30
2019-06-10T08:01:14.424Z,98.30
2019-06-10T08:03:16.274Z,98.30
2019-06-10T08:05:18.323Z,98.30
2019-06-10T08:07:22.406Z,98.30
2019-06-10T08:09:23.890Z,98.30
2019-06-10T08:11:25.626Z,98.30
2019-06-10T08:13:27.441Z,98.30
2019-06-10T08:15:29.467Z,98.30
2019-06-10T08:17:32.809Z,98.30
2019-06-10T08:19:39.796Z,98.30
2019-06-10T08:21:39.017Z,98.30
2019-06-10T08:23:44.763Z,98.30
2019-06-10T08:25:52.973Z,98.30
2019-06-10T08:27:52.956Z,98.30
2019-06-10T08:30:13.761Z,98.30
2019-06-10T08:31:58.063Z,98.30
2019-06-10T08:34:02.749Z,98.30
2019-06-10T08:36:04.296Z,98.30
2019-06-10T08:38:06.324Z,98.30
2019-06-10T08:40:08.295Z,98.30
2019-06-10T08:42:12.326Z,98.30
2019-06-10T08:44:14.059Z,98.30
2019-06-10T08:46:17.495Z,98.30
2019-06-10T08:48:19.647Z,98.30
2019-06-10T08:50:24.632Z,98.30
2019-06-10T08:52:25.413Z,98.30
2019-06-10T08:54:27.414Z,98.30
2019-06-10T08:56:29.135Z,98.30
2019-06-10T09:11:02.288Z,98.30
2019-06-10T09:13:04.870Z,98.30
2019-06-10T09:15:36.008Z,98.30
2019-06-10T09:19:06.932Z,98.30
2019-06-10T09:21:16.680Z,98.30
2019-06-10T09:23:22.455Z,98.30
2019-06-10T09:25:46.890Z,98.30
2019-06-10T09:35:33.221Z,98.30
2019-06-10T09:37:35.762Z,98.30
2019-06-10T09:39:50.459Z,98.30
2019-06-10T09:42:14.624Z,98.30
2019-06-10T09:45:47.529Z,98.30
2019-06-10T09:47:59.942Z,98.30
2019-06-10T09:50:06.397Z,98.30
2019-06-10T09:52:14.388Z,98.30
2019-06-10T09:54:16.654Z,98.30
2019-06-10T09:56:18.786Z,98.30
2019-06-10T09:58:23.148Z,98.30
2019-06-10T10:00:48.479Z,98.30
2019-06-10T10:02:49.733Z,98.30
2019-06-10T10:05:24.805Z,98.30
2019-06-10T10:07:28.307Z,98.30
2019-06-10T10:09:37.104Z,98.30
2019-06-10T10:11:45.752Z,98.30
2019-06-10T10:17:27.590Z,98.30
2019-06-10T10:19:29.572Z,98.30
2019-06-10T10:21:31.450Z,98.30
2019-06-10T10:23:50.189Z,98.30
2019-06-10T10:25:45.972Z,98.30
2019-06-10T10:27:51.249Z,98.30
2019-06-10T10:29:56.951Z,98.30
2019-06-10T10:32:49.418Z,98.30
2019-06-10T10:34:50.224Z,98.30
2019-06-10T10:36:57.330Z,98.30
2019-06-10T10:39:02.270Z,98.30
2019-06-10T10:41:04.797Z,98.30
2019-06-10T10:43:24.473Z,98.30
2019-06-10T10:45:13.267Z,98.30
2019-06-10T10:47:17.237Z,98.30
2019-06-10T10:49:22.393Z,98.30
2019-06-10T10:51:24.766Z,98.30
2019-06-10T10:53:29.197Z,98.30
2019-06-10T10:55:34.163Z,98.30
2019-06-10T10:57:43.191Z,98.10
2019-06-10T10:59:49.522Z,97.50
2019-06-10T11:01:53.703Z,97.80
2019-06-10T11:03:58.769Z,98.30
2019-06-10T11:09:28.532Z,95.70
2019-06-10T11:11:33.112Z,96.30
2019-06-10T11:13:36.118Z,94.50
2019-06-10T11:15:38.208Z,92.90
2019-06-10T11:17:42.530Z,92.60
2019-06-10T11:19:43.608Z,93.20
2019-06-10T11:21:45.352Z,91.30
2019-06-10T11:23:48.084Z,88.90
2019-06-10T11:25:53.709Z,89.20
2019-06-10T11:27:55.819Z,89.40
2019-06-10T11:29:59.161Z,89.10
2019-06-10T11:32:02.490Z,88.60
2019-06-10T11:34:05.091Z,86.60
2019-06-10T11:36:07.053Z,86.90
2019-06-10T11:38:08.989Z,86.60
2019-06-10T11:40:13.578Z,86.60
2019-06-10T11:42:14.741Z,87.60
2019-06-10T11:44:16.447Z,88.30
2019-06-10T11:46:18.295Z,88.90
2019-06-10T11:48:19.992Z,89.10
2019-06-10T11:50:23.222Z,88.60
2019-06-10T11:52:25.384Z,87.20
2019-06-10T11:54:27.325Z,87.00
2019-06-10T11:56:29.012Z,87.30
2019-06-10T11:58:33.088Z,87.40
2019-06-10T12:00:35.188Z,87.80
2019-06-10T12:02:37.141Z,88.40
2019-06-10T12:04:39.047Z,88.80
2019-06-10T12:06:42.583Z,87.30
2019-06-10T12:08:44.499Z,87.00
2019-06-10T12:10:46.233Z,85.80
2019-06-10T12:12:48.927Z,85.80
2019-06-10T12:14:53.911Z,86.00
2019-06-10T12:18:59.000Z,82.10
2019-06-10T12:21:03.732Z,82.40
2019-06-10T12:23:05.389Z,82.10
2019-06-10T12:25:30.440Z,82.60
2019-06-10T12:27:13.095Z,82.90
2019-06-10T12:29:14.939Z,82.60
2019-06-10T12:31:17.285Z,82.90
2019-06-10T12:33:24.856Z,86.40
2019-06-10T12:35:23.143Z,86.40
2019-06-10T12:37:25.245Z,85.80
2019-06-10T12:39:27.063Z,86.60
2019-06-10T12:41:28.868Z,84.70
2019-06-10T12:43:32.556Z,85.30
2019-06-10T12:45:34.569Z,85.40
2019-06-10T12:47:36.264Z,86.00
2019-06-10T12:49:37.961Z,86.30
2019-06-10T12:51:39.664Z,85.50
2019-06-10T12:53:43.155Z,84.80
2019-06-10T12:55:47.088Z,83.80
2019-06-10T12:57:48.960Z,84.70
2019-06-10T12:59:52.273Z,85.50
2019-06-10T13:01:55.849Z,83.90
2019-06-10T13:03:57.966Z,83.90
2019-06-10T13:06:03.615Z,84.70
2019-06-10T13:08:06.069Z,84.80
2019-06-10T13:10:09.173Z,84.80
2019-06-10T13:12:12.947Z,84.60
2019-06-10T13:14:18.038Z,83.20
2019-06-10T13:16:18.214Z,83.00
2019-06-10T13:18:19.932Z,84.80
2019-06-10T13:20:22.945Z,83.20
2019-06-10T13:22:25.129Z,82.70
2019-06-10T13:24:26.816Z,83.50
2019-06-10T13:26:32.141Z,83.10
2019-06-10T13:28:32.815Z,82.60
2019-06-10T13:30:34.748Z,83.70
2019-06-10T13:32:36.460Z,83.20
2019-06-10T13:34:38.153Z,81.40
2019-06-10T13:36:42.104Z,81.10
2019-06-10T13:38:43.460Z,79.90
2019-06-10T13:40:45.305Z,80.60
2019-06-10T13:42:47.032Z,80.40
2019-06-10T13:44:48.847Z,82.20
2019-06-10T13:46:52.608Z,82.20
2019-06-10T13:48:54.171Z,83.40
2019-06-10T13:50:55.873Z,84.10
2019-06-10T13:52:58.661Z,84.60
2019-06-10T13:55:03.431Z,86.20
2019-06-10T13:57:06.905Z,86.50
2019-06-10T13:59:09.602Z,86.90
2019-06-10T14:01:20.781Z,87.20
2019-06-10T14:03:16.346Z,86.40
2019-06-10T14:05:18.661Z,86.40
2019-06-10T14:07:23.200Z,85.70
2019-06-10T14:09:24.366Z,86.10
2019-06-10T14:11:29.573Z,86.30
2019-06-10T14:13:32.380Z,87.40
2019-06-10T14:15:34.507Z,86.50
2019-06-10T14:17:36.587Z,86.50
2019-06-10T14:19:38.288Z,86.30
2019-06-10T14:21:42.351Z,86.60
2019-06-10T14:23:43.569Z,86.40
2019-06-10T14:25:45.273Z,85.60
2019-06-10T14:27:47.100Z,85.70
2019-06-10T14:29:48.788Z,86.10
2019-06-10T14:31:53.058Z,85.90
2019-06-10T14:33:54.230Z,85.80
2019-06-10T14:35:55.900Z,86.70
2019-06-10T14:37:57.650Z,87.60
2019-06-10T14:39:59.470Z,88.10
2019-06-10T14:42:04.895Z,88.70
2019-06-10T14:44:06.757Z,89.70
2019-06-10T14:46:09.142Z,90.60
2019-06-10T14:48:15.177Z,90.90
2019-06-10T14:50:17.317Z,91.20
2019-06-10T14:52:18.885Z,91.70
2019-06-10T14:54:22.800Z,91.30
2019-06-10T14:56:24.493Z,90.90
2019-06-10T14:58:26.605Z,91.10
2019-06-10T15:00:28.320Z,91.70
2019-06-10T15:02:30.004Z,91.90
2019-06-10T15:04:33.166Z,92.40
2019-06-10T15:06:35.117Z,92.80
2019-06-10T15:08:36.975Z,93.00
2019-06-10T15:10:38.657Z,93.40
2019-06-10T15:12:42.282Z,94.10
2019-06-10T15:14:43.990Z,93.20
2019-06-10T15:16:45.877Z,94.10
2019-06-10T15:18:47.556Z,94.20
2019-06-10T15:20:49.282Z,95.00
2019-06-10T15:22:52.677Z,95.70
2019-06-10T15:24:54.624Z,95.70
2019-06-10T15:27:08.979Z,95.60
2019-06-10T15:29:02.603Z,95.80
2019-06-10T15:31:04.064Z,95.60
2019-06-10T15:33:05.783Z,95.80
2019-06-10T15:35:08.664Z,96.10
2019-06-10T15:37:11.745Z,95.60
2019-06-10T15:39:16.727Z,94.60
2019-06-10T15:41:19.934Z,95.10
2019-06-10T15:43:23.535Z,95.70
2019-06-10T15:45:24.892Z,95.30
2019-06-10T15:47:26.744Z,95.30
2019-06-10T15:49:28.536Z,95.50
2019-06-10T15:51:30.361Z,95.50
2019-06-10T15:53:32.831Z,95.60
2019-06-10T15:56:05.834Z,96.00
2019-06-10T15:57:43.211Z,95.40
2019-06-10T15:59:42.840Z,94.40
2019-06-10T16:01:44.588Z,94.90
2019-06-10T16:03:46.309Z,95.10
2019-06-10T16:05:48.034Z,95.20
2019-06-10T16:07:49.780Z,95.60
2019-06-10T16:09:53.314Z,95.40
2019-06-10T16:11:55.216Z,95.20
2019-06-10T16:13:56.918Z,94.90
2019-06-10T16:15:58.801Z,95.30
2019-06-10T16:18:02.757Z,95.40
2019-06-10T16:20:04.481Z,95.50
2019-06-10T16:22:06.181Z,95.20
2019-06-10T16:24:08.076Z,95.40
2019-06-10T16:26:09.872Z,96.00
2019-06-10T16:28:12.866Z,96.40
2019-06-10T16:30:16.057Z,96.60
2019-06-10T16:32:18.492Z,97.10
2019-06-10T16:34:21.951Z,97.40
2019-06-10T16:36:26.250Z,97.40
2019-06-10T16:38:27.709Z,97.40
2019-06-10T16:40:29.743Z,97.30
2019-06-10T16:42:32.176Z,97.10
2019-06-10T16:44:33.977Z,97.30
2019-06-10T16:46:35.817Z,97.10
2019-06-10T16:48:37.513Z,97.10
2019-06-10T16:50:42.450Z,97.60
2019-06-10T16:52:43.619Z,97.60
2019-06-10T16:54:45.316Z,97.90
2019-06-10T16:56:47.016Z,98.10
2019-06-10T16:58:48.740Z,98.30
2019-06-10T17:00:50.804Z,98.30
2019-06-10T17:02:52.963Z,98.30
2019-06-10T17:04:58.254Z,98.30
2019-06-10T17:06:58.701Z,98.30
2019-06-10T17:09:02.757Z,98.30
2019-06-10T17:11:04.205Z,98.30
2019-06-10T17:13:07.457Z,98.30
2019-06-10T17:15:09.683Z,98.30
2019-06-10T17:17:12.715Z,98.30
2019-06-10T17:19:14.609Z,98.30
2019-06-10T17:21:16.393Z,98.30
2019-06-10T17:23:25.658Z,98.30
2019-06-10T17:25:26.553Z,98.30
2019-06-10T17:27:29.621Z,98.30
2019-06-10T17:29:33.505Z,98.30
2019-06-10T17:31:35.437Z,98.30
2019-06-10T17:33:37.243Z,98.30
2019-06-10T17:35:39.016Z,98.30
2019-06-10T17:37:43.064Z,98.30
2019-06-10T17:39:44.347Z,98.30
2019-06-10T17:41:46.052Z,98.30
2019-06-10T17:43:47.753Z,98.30
2019-06-10T17:45:49.547Z,98.30
2019-06-10T17:47:52.484Z,98.30
2019-06-10T17:49:54.225Z,98.30
2019-06-10T17:51:56.005Z,98.30
2019-06-10T17:53:57.753Z,98.30
2019-06-10T17:55:59.475Z,98.30
2019-06-10T17:58:02.909Z,98.30
2019-06-10T18:00:12.340Z,98.30
2019-06-10T18:02:12.382Z,98.30
2019-06-10T18:04:14.165Z,98.30
2019-06-10T18:06:16.094Z,98.30
2019-06-10T18:08:17.820Z,98.30
2019-06-10T18:10:19.613Z,98.30
2019-06-10T18:12:22.304Z,98.30
2019-06-10T18:14:24.516Z,98.30
2019-06-10T18:16:26.388Z,98.30
2019-06-10T18:18:28.376Z,98.30
2019-06-10T18:20:33.127Z,98.30
2019-06-10T18:22:37.069Z,98.30
2019-06-10T18:24:38.205Z,98.30
2019-06-10T18:26:42.245Z,98.30
2019-06-10T18:29:00.900Z,98.30
2019-06-10T18:30:47.313Z,98.30
2019-06-10T18:32:49.115Z,98.30
2019-06-10T18:34:52.113Z,98.30
2019-06-10T18:36:53.841Z,98.30
2019-06-10T18:38:55.521Z,98.30
2019-06-10T18:40:57.217Z,98.30
2019-06-10T18:42:58.901Z,98.30
2019-06-10T18:45:02.733Z,98.30
2019-06-10T18:47:04.378Z,98.30
2019-06-10T18:49:06.171Z,98.30
2019-06-10T18:51:07.858Z,98.30
2019-06-10T18:53:09.574Z,98.30
2019-06-10T18:55:12.248Z,98.30
2019-06-10T18:57:14.149Z,98.30
2019-06-10T18:59:20.917Z,98.30
2019-06-10T19:01:19.432Z,98.30
2019-06-10T19:03:23.413Z,98.30
2019-06-10T19:05:24.988Z,98.30
2019-06-10T19:07:26.697Z,98.30
2019-06-10T19:09:28.954Z,98.30
2019-06-10T19:11:31.712Z,98.30
2019-06-10T19:13:35.945Z,98.30
2019-06-10T19:15:38.022Z,98.30
2019-06-10T19:17:41.607Z,98.30
2019-06-10T19:19:43.467Z,98.30
2019-06-10T19:21:59.156Z,98.30
2019-06-10T19:23:48.954Z,98.30
2019-06-10T19:25:52.493Z,98.30
2019-06-10T19:27:54.592Z,98.30
2019-06-10T19:29:56.404Z,98.30
2019-06-10T19:31:58.214Z,98.30
2019-06-10T19:34:03.222Z,98.30
2019-06-10T19:36:03.770Z,98.30
2019-06-10T19:38:05.530Z,98.30
2019-06-10T19:40:07.607Z,98.30
2019-06-10T19:42:13.058Z,98.30
2019-06-10T19:44:14.567Z,98.30
2019-06-10T19:46:16.414Z,98.30
2019-06-10T19:48:18.137Z,98.30
2019-06-10T19:50:20.052Z,98.30
2019-06-10T19:52:23.392Z,98.30
2019-06-10T19:54:25.353Z,98.30
2019-06-10T19:56:27.077Z,98.30
2019-06-10T19:58:28.794Z,98.30
2019-06-10T20:00:32.680Z,98.30
2019-06-10T20:02:35.702Z,98.30
2019-06-10T20:04:37.777Z,98.30
2019-06-10T20:06:43.376Z,98.30
2019-06-10T20:08:46.017Z,98.30
2019-06-10T20:10:47.129Z,98.30
2019-06-10T20:12:48.892Z,98.30
2019-06-10T20:14:52.721Z,98.30
2019-06-10T20:16:54.449Z,98.30
2019-06-10T20:18:56.181Z,98.30
2019-06-10T20:20:58.067Z,98.30
2019-06-10T20:23:02.881Z,98.30
2019-06-10T20:25:04.175Z,98.30
2019-06-10T20:27:06.085Z,98.30
2019-06-10T20:29:07.902Z,98.30
2019-06-10T20:31:09.755Z,98.30
2019-06-10T20:33:13.958Z,98.30
2019-06-10T20:35:16.773Z,98.30
2019-06-10T20:37:18.519Z,98.30
2019-06-10T20:39:24.392Z,98.30
2019-06-10T20:41:24.178Z,98.30
2019-06-10T20:43:25.970Z,98.30
2019-06-10T20:45:27.709Z,98.30
2019-06-10T20:47:29.461Z,98.30
2019-06-10T20:49:32.547Z,98.30
2019-06-10T20:51:48.887Z,98.30
2019-06-10T20:53:38.179Z,98.30
2019-06-10T20:55:47.584Z,98.30
2019-06-10T20:57:55.904Z,98.30
2019-06-10T20:59:48.576Z,98.30
2019-06-10T21:01:53.457Z,98.30
2019-06-10T21:03:55.196Z,98.30
2019-06-10T21:06:02.954Z,98.30
2019-06-10T21:08:05.490Z,98.30
2019-06-10T21:10:07.434Z,98.30
2019-06-10T21:12:09.227Z,98.30
2019-06-10T21:14:12.271Z,98.30
2019-06-10T21:16:14.277Z,98.30
2019-06-10T21:18:16.031Z,98.30
2019-06-10T21:20:17.741Z,98.30
2019-06-10T21:22:19.584Z,98.30
2019-06-10T21:24:23.131Z,98.30
2019-06-10T21:26:25.030Z,98.30
2019-06-10T21:28:26.759Z,98.30
2019-06-10T21:30:38.527Z,98.30
2019-06-10T21:32:32.648Z,98.30
2019-06-10T21:34:34.428Z,98.30
2019-06-10T21:36:36.130Z,98.30
2019-06-10T21:38:37.949Z,98.30
2019-06-10T21:40:42.089Z,98.30
2019-06-10T21:42:43.705Z,98.30
2019-06-10T21:44:45.892Z,98.30
2019-06-10T21:46:48.773Z,98.30
2019-06-10T21:48:50.809Z,98.30
2019-06-10T21:50:55.640Z,98.30
2019-06-10T21:52:56.165Z,98.30
2019-06-10T21:54:57.902Z,98.30
2019-06-10T21:56:59.609Z,98.30
2019-06-10T21:59:02.399Z,98.30
2019-06-10T22:01:12.655Z,98.30
2019-06-10T22:03:08.900Z,98.30
2019-06-10T22:05:12.324Z,98.30
2019-06-10T22:07:14.329Z,98.30
2019-06-10T22:09:16.117Z,98.30
2019-06-10T22:11:17.833Z,98.30
2019-06-10T22:13:19.559Z,98.30
2019-06-10T22:15:22.630Z,98.30
2019-06-10T22:17:24.774Z,98.30
2019-06-10T22:19:26.790Z,98.30
2019-06-10T22:21:28.493Z,98.30
2019-06-10T22:23:30.306Z,98.30
2019-06-10T22:25:32.872Z,98.30
2019-06-10T22:27:34.881Z,98.30
2019-06-10T22:29:36.689Z,98.30
2019-06-10T22:31:38.515Z,98.30
2019-06-10T22:33:43.026Z,98.30
2019-06-10T22:35:45.447Z,98.30
2019-06-10T22:37:47.742Z,98.30
2019-06-10T22:39:50.045Z,98.30
2019-06-10T22:41:54.103Z,98.30
2019-06-10T22:43:57.412Z,98.30
2019-06-10T22:45:59.902Z,98.30
2019-06-10T22:48:03.012Z,98.30
2019-06-10T22:50:07.494Z,98.30
2019-06-10T22:52:08.950Z,98.30
2019-06-10T22:54:10.781Z,98.30
2019-06-10T22:56:12.486Z,98.30
2019-06-10T22:58:14.594Z,98.30
2019-06-10T23:00:16.585Z,98.30
2019-06-10T23:02:18.301Z,98.30
2019-06-10T23:04:22.262Z,98.30
2019-06-10T23:06:23.722Z,98.30
2019-06-10T23:08:25.537Z,98.30
2019-06-10T23:10:27.377Z,98.30
2019-06-10T23:12:29.098Z,98.30
2019-06-10T23:14:33.063Z,98.30
2019-06-10T23:16:34.445Z,98.30
2019-06-10T23:18:36.245Z,98.30
2019-06-10T23:20:37.953Z,98.30
2019-06-10T23:22:39.689Z,98.30
2019-06-10T23:24:42.633Z,98.30
2019-06-10T23:26:44.629Z,98.30
2019-06-10T23:28:46.694Z,98.30
2019-06-10T23:30:49.770Z,98.30
2019-06-10T23:32:54.472Z,98.30
2019-06-10T23:34:58.208Z,98.30
2019-06-10T23:37:00.316Z,98.30
2019-06-10T23:39:04.113Z,98.30
2019-06-10T23:41:06.197Z,98.30
2019-06-10T23:43:07.927Z,98.30
2019-06-10T23:45:12.751Z,98.30
2019-06-10T23:47:13.945Z,98.30
2019-06-10T23:49:15.642Z,98.30
2019-06-10T23:51:17.469Z,98.30
2019-06-10T23:53:19.174Z,98.30
2019-06-10T23:55:22.745Z,98.30
2019-06-10T23:57:24.535Z,98.30
2019-06-10T23:59:26.285Z,98.30
